Terminal Aerodrome Forecast
Issued by NWS

Home | Current Version | Previous Version | Text Only | Print | Product List | Glossary On
Versions: 1 2 3 4 5 6 7 8 9 10 11 12 13 14 15 16 17 18 19 20 21 22 23 24 25 26 27 28 29 30
000
FTUS41 KBUF 012104 AAA
TAFIAG
TAF AMD
KIAG 012104Z 0121/0218 29014KT P6SM VCSH SCT040 BKN060
     FM012300 29011KT P6SM BKN035
     FM020200 27005KT P6SM BKN050
     FM020700 VRB03KT P6SM BKN250=

USA.gov is the U.S. government's official web portal to all federal, state and local government web resources and services.